Time;durP1;ratioP1;P1;durP2;ratioP2;P2;SDS_P1;SDS_P2;PMS_P1;PMS_P2;Temp;Humidity;BMP_temperature;BMP_pressure;BME280_temperature;BME280_humidity;BME280_pressure;Samples;Min_cycle;Max_cycle;Signal;HPM_P1;HPM_P2
2021/10/06 00:01:15;;;;;;;2.45;1.27;;;;;;;11.46;nan;100287.59;5055179;28;20052;-75
2021/10/06 00:03:40;;;;;;;5.35;1.27;;;;;;;11.41;nan;100289.91;5081616;28;20140;-75
2021/10/06 00:06:06;;;;;;;2.35;1.00;;;;;;;11.45;nan;100291.25;5072496;28;20072;-76
2021/10/06 00:08:32;;;;;;;4.32;1.58;;;;;;;11.45;nan;100289.41;5073537;28;20039;-75
2021/10/06 00:10:57;;;;;;;4.93;1.40;;;;;;;11.45;nan;100291.25;5055418;28;20090;-75
2021/10/06 00:13:22;;;;;;;2.55;1.20;;;;;;;11.42;nan;100288.94;5055587;28;20032;-74
2021/10/06 00:15:48;;;;;;;3.00;1.20;;;;;;;11.32;nan;100304.97;5073093;28;20545;-74
2021/10/06 00:18:14;;;;;;;3.92;1.40;;;;;;;11.29;nan;100307.09;5073511;28;20056;-75
2021/10/06 00:20:41;;;;;;;3.55;1.40;;;;;;;11.22;nan;100313.00;5055931;28;20029;-75
2021/10/06 00:23:06;;;;;;;2.55;1.20;;;;;;;11.15;nan;100314.66;5072799;28;20024;-75
2021/10/06 00:25:32;;;;;;;3.25;1.10;;;;;;;11.09;nan;100315.31;5073254;28;20032;-75
2021/10/06 00:27:57;;;;;;;2.55;1.10;;;;;;;11.08;nan;100326.03;5072288;28;20032;-75
2021/10/06 00:30:23;;;;;;;4.22;1.45;;;;;;;11.12;nan;100332.69;5072213;28;20033;-75
2021/10/06 00:32:48;;;;;;;5.00;1.30;;;;;;;11.07;nan;100334.97;5053988;28;20426;-75
2021/10/06 00:35:15;;;;;;;4.15;1.25;;;;;;;11.03;nan;100337.09;5072575;28;20036;-75
2021/10/06 00:37:40;;;;;;;2.72;1.08;;;;;;;11.04;nan;100342.25;5067634;28;20037;-75
2021/10/06 00:40:07;;;;;;;3.38;1.20;;;;;;;11.07;nan;100346.38;5054430;28;20154;-75
2021/10/06 00:42:33;;;;;;;4.15;1.23;;;;;;;11.16;nan;100345.44;5054334;28;20028;-75
2021/10/06 00:44:59;;;;;;;3.45;1.35;;;;;;;11.15;nan;100348.22;5072507;28;20382;-75
2021/10/06 00:47:24;;;;;;;4.28;1.20;;;;;;;11.20;nan;100348.56;5072453;28;20071;-75
2021/10/06 00:49:50;;;;;;;4.30;1.20;;;;;;;11.20;nan;100346.78;5073380;28;20032;-75
2021/10/06 00:52:16;;;;;;;5.28;1.30;;;;;;;11.24;nan;100352.56;5053042;28;20044;-75
2021/10/06 00:54:43;;;;;;;4.47;1.67;;;;;;;11.22;nan;100347.41;5052711;28;20043;-75
2021/10/06 00:57:09;;;;;;;2.80;1.27;;;;;;;11.26;nan;100351.41;5070883;28;20094;-75
2021/10/06 00:59:34;;;;;;;2.95;1.10;;;;;;;11.23;nan;100354.41;5054877;28;20459;-75
2021/10/06 01:02:00;;;;;;;5.00;1.20;;;;;;;11.26;nan;100362.00;5054294;28;20031;-74
2021/10/06 01:04:25;;;;;;;4.05;1.30;;;;;;;11.29;nan;100363.50;5071222;28;20044;-75
2021/10/06 01:06:50;;;;;;;4.53;1.42;;;;;;;11.29;nan;100370.63;5053324;28;20504;-74
2021/10/06 01:09:16;;;;;;;3.70;1.58;;;;;;;11.30;nan;100372.25;5071203;28;20124;-75
2021/10/06 01:11:41;;;;;;;3.50;1.02;;;;;;;11.25;nan;100359.53;5052887;28;20063;-75
2021/10/06 01:14:08;;;;;;;4.50;1.40;;;;;;;11.28;nan;100375.09;5060142;28;20025;-75
2021/10/06 01:16:33;;;;;;;3.38;1.20;;;;;;;11.35;nan;100380.56;5055118;28;20167;-75
2021/10/06 01:18:59;;;;;;;4.53;1.23;;;;;;;11.33;nan;100374.59;5054089;28;20028;-75
2021/10/06 01:21:24;;;;;;;3.53;1.00;;;;;;;11.36;nan;100377.75;5071134;28;20109;-75
2021/10/06 01:23:50;;;;;;;2.45;1.00;;;;;;;11.34;nan;100379.72;5070705;28;20036;-75
2021/10/06 01:26:19;;;;;;;3.55;1.33;;;;;;;11.37;nan;100387.38;5051760;28;20032;-76
2021/10/06 01:28:51;;;;;;;3.05;0.93;;;;;;;11.36;nan;100383.03;5069944;28;20047;-75
2021/10/06 01:31:17;;;;;;;3.17;1.13;;;;;;;11.40;nan;100388.88;5070184;28;20454;-75
2021/10/06 01:33:43;;;;;;;3.80;1.08;;;;;;;11.43;nan;100392.00;5071025;28;20034;-75
2021/10/06 01:36:09;;;;;;;4.93;1.25;;;;;;;11.36;nan;100391.00;5051704;28;20522;-75
2021/10/06 01:38:34;;;;;;;3.28;1.10;;;;;;;11.37;nan;100392.66;5052232;28;20040;-75
2021/10/06 01:40:59;;;;;;;3.72;1.40;;;;;;;11.38;nan;100399.59;5074143;28;20036;-75
2021/10/06 01:43:25;;;;;;;3.53;1.30;;;;;;;11.40;nan;100394.97;5071947;28;20032;-75
2021/10/06 01:45:50;;;;;;;2.05;1.05;;;;;;;11.33;nan;100401.91;5069324;28;20509;-76
2021/10/06 01:48:16;;;;;;;2.95;1.10;;;;;;;11.40;nan;100402.09;5053173;28;20513;-75
2021/10/06 01:50:43;;;;;;;2.97;1.02;;;;;;;11.39;nan;100403.06;5048030;28;20390;-75
2021/10/06 01:53:10;;;;;;;3.85;1.00;;;;;;;11.36;nan;100392.81;5052271;28;20036;-75
2021/10/06 01:55:36;;;;;;;3.25;1.33;;;;;;;11.37;nan;100391.81;5051462;28;20129;-75
2021/10/06 01:58:05;;;;;;;3.25;1.27;;;;;;;11.31;nan;100395.94;5069934;28;20078;-75
2021/10/06 02:00:32;;;;;;;4.53;1.30;;;;;;;11.36;nan;100398.94;5069408;28;20036;-75
2021/10/06 02:02:57;;;;;;;4.40;1.10;;;;;;;11.29;nan;100397.09;5070404;28;20125;-75
2021/10/06 02:05:22;;;;;;;3.10;1.20;;;;;;;11.19;nan;100392.75;5069626;28;20079;-75
2021/10/06 02:07:48;;;;;;;6.18;1.33;;;;;;;11.22;nan;100391.59;5067335;28;20036;-75
2021/10/06 02:10:13;;;;;;;5.25;1.30;;;;;;;11.15;nan;100386.09;5051719;28;20390;-75
2021/10/06 02:12:39;;;;;;;4.88;1.45;;;;;;;11.08;nan;100389.53;5071194;28;20166;-75
2021/10/06 02:15:06;;;;;;;7.40;1.38;;;;;;;11.11;nan;100391.88;5064682;28;20044;-75
2021/10/06 02:17:31;;;;;;;3.60;1.40;;;;;;;11.11;nan;100398.03;5069744;28;20041;-76
2021/10/06 02:19:57;;;;;;;7.10;1.35;;;;;;;11.12;nan;100402.31;5070815;28;20173;-75
2021/10/06 02:22:22;;;;;;;5.38;1.75;;;;;;;11.13;nan;100401.34;5070717;28;20074;-75
2021/10/06 02:24:48;;;;;;;4.55;1.40;;;;;;;11.21;nan;100404.00;5070470;28;20028;-75
2021/10/06 02:27:13;;;;;;;3.63;1.30;;;;;;;11.25;nan;100408.00;5067286;28;20509;-75
2021/10/06 02:29:38;;;;;;;5.63;1.48;;;;;;;11.33;nan;100414.31;5052444;28;21667;-75
2021/10/06 02:32:04;;;;;;;3.45;1.23;;;;;;;11.36;nan;100408.69;5052092;28;20040;-75
2021/10/06 02:34:29;;;;;;;5.38;1.40;;;;;;;11.39;nan;100409.22;5052721;28;20286;-75
2021/10/06 02:36:55;;;;;;;5.38;1.40;;;;;;;11.35;nan;100409.69;5052184;28;20048;-75
2021/10/06 02:39:20;;;;;;;4.90;1.40;;;;;;;11.37;nan;100410.34;5070462;28;20139;-75
2021/10/06 02:41:46;;;;;;;5.95;1.38;;;;;;;11.37;nan;100419.13;5078462;28;20104;-75
2021/10/06 02:44:11;;;;;;;4.72;1.50;;;;;;;11.43;nan;100413.19;5069016;28;20040;-75
2021/10/06 02:46:37;;;;;;;4.93;1.60;;;;;;;11.42;nan;100414.19;5051301;28;20103;-75
2021/10/06 02:49:02;;;;;;;3.97;1.30;;;;;;;11.40;nan;100402.94;5051703;28;20526;-75
2021/10/06 02:51:28;;;;;;;4.95;1.40;;;;;;;11.39;nan;100409.22;5051911;28;20025;-75
2021/10/06 02:53:53;;;;;;;2.72;1.15;;;;;;;11.34;nan;100408.03;5054628;28;20130;-75
2021/10/06 02:56:19;;;;;;;3.50;1.25;;;;;;;11.19;nan;100399.88;5057926;28;20512;-75
2021/10/06 02:58:44;;;;;;;5.57;1.33;;;;;;;11.16;nan;100402.84;5051738;28;20071;-75
2021/10/06 03:01:09;;;;;;;3.88;1.00;;;;;;;11.08;nan;100408.91;5052175;28;20036;-75
2021/10/06 03:03:35;;;;;;;3.88;1.38;;;;;;;11.08;nan;100410.72;5055593;28;20044;-75
2021/10/06 03:06:00;;;;;;;4.70;1.20;;;;;;;11.01;nan;100405.22;5069754;28;20400;-75
2021/10/06 03:08:26;;;;;;;5.40;1.38;;;;;;;10.94;nan;100412.97;5076750;28;20043;-75
2021/10/06 03:10:51;;;;;;;4.72;1.20;;;;;;;10.88;nan;100404.84;5071183;28;20045;-75
2021/10/06 03:13:17;;;;;;;3.05;1.10;;;;;;;10.78;nan;100413.69;5050689;28;20029;-75
2021/10/06 03:15:44;;;;;;;4.93;1.65;;;;;;;10.77;nan;100406.78;5055824;28;20037;-75
2021/10/06 03:18:09;;;;;;;3.85;1.30;;;;;;;10.77;nan;100413.84;5069159;28;20059;-75
2021/10/06 03:20:36;;;;;;;7.47;1.45;;;;;;;10.75;nan;100411.38;5055692;28;20185;-75
2021/10/06 03:23:08;;;;;;;4.80;0.93;;;;;;;10.67;nan;100424.53;5072924;28;20032;-74
2021/10/06 03:25:33;;;;;;;5.03;1.45;;;;;;;10.63;nan;100426.66;5073373;28;20424;-75
2021/10/06 03:27:58;;;;;;;2.70;1.15;;;;;;;10.55;nan;100431.88;5074339;28;20029;-75
2021/10/06 03:30:24;;;;;;;2.30;1.10;;;;;;;10.46;nan;100438.09;5074237;28;20028;-75
2021/10/06 03:32:49;;;;;;;3.60;0.88;;;;;;;10.44;nan;100448.00;5074919;28;20032;-75
2021/10/06 03:35:18;;;;;;;4.97;1.42;;;;;;;10.54;nan;100456.69;5064335;28;20041;-75
2021/10/06 03:37:45;;;;;;;2.58;1.17;;;;;;;10.54;nan;100453.22;5081801;28;20059;-75
2021/10/06 03:40:11;;;;;;;3.90;1.20;;;;;;;10.53;nan;100454.16;5072158;28;20102;-75
2021/10/06 03:42:37;;;;;;;3.25;1.35;;;;;;;10.57;nan;100460.81;5076270;28;20298;-75
2021/10/06 03:45:04;;;;;;;5.13;1.40;;;;;;;10.60;nan;100465.78;5073717;28;20451;-75
2021/10/06 03:47:29;;;;;;;6.22;1.70;;;;;;;10.67;nan;100464.19;5073913;28;20388;-74
2021/10/06 03:49:54;;;;;;;3.65;1.20;;;;;;;10.70;nan;100455.13;5082113;28;20040;-74
2021/10/06 03:52:20;;;;;;;5.60;1.48;;;;;;;10.76;nan;100460.63;5070303;28;20101;-75
2021/10/06 03:54:45;;;;;;;5.93;1.38;;;;;;;10.69;nan;100459.59;5070714;28;20025;-74
2021/10/06 03:57:10;;;;;;;8.23;1.40;;;;;;;10.72;nan;100459.28;5054618;28;20051;-74
2021/10/06 03:59:35;;;;;;;4.63;1.17;;;;;;;10.66;nan;100461.72;5072813;28;20032;-74
2021/10/06 04:02:01;;;;;;;5.95;1.48;;;;;;;10.67;nan;100464.19;5055814;28;20051;-75
2021/10/06 04:04:26;;;;;;;3.08;1.20;;;;;;;10.63;nan;100460.22;5072649;28;20032;-74
2021/10/06 04:06:51;;;;;;;2.45;1.08;;;;;;;10.63;nan;100462.88;5055839;28;20405;-75
2021/10/06 04:09:17;;;;;;;3.95;1.40;;;;;;;10.66;nan;100475.78;5056560;28;20039;-75
2021/10/06 04:11:42;;;;;;;4.57;1.45;;;;;;;10.69;nan;100475.47;5055030;28;20028;-75
2021/10/06 04:14:07;;;;;;;5.45;1.20;;;;;;;10.75;nan;100468.72;5072691;28;20043;-75
2021/10/06 04:16:33;;;;;;;6.63;1.42;;;;;;;10.71;nan;100476.13;5057985;28;20489;-75
2021/10/06 04:18:58;;;;;;;5.50;1.42;;;;;;;10.70;nan;100474.50;5072755;28;20039;-75
2021/10/06 04:21:23;;;;;;;5.93;1.40;;;;;;;10.74;nan;100489.03;5054506;28;20386;-75
2021/10/06 04:23:49;;;;;;;7.95;1.60;;;;;;;10.69;nan;100487.84;5072084;28;20028;-74
2021/10/06 04:26:14;;;;;;;6.30;1.40;;;;;;;10.67;nan;100487.19;5051630;28;20033;-76
2021/10/06 04:28:39;;;;;;;5.25;1.40;;;;;;;10.64;nan;100490.97;5071481;28;20048;-76
2021/10/06 04:31:04;;;;;;;6.68;1.30;;;;;;;10.63;nan;100495.44;5070960;28;20036;-75
2021/10/06 04:33:30;;;;;;;7.20;1.45;;;;;;;10.60;nan;100498.34;5073125;28;20043;-76
2021/10/06 04:35:55;;;;;;;3.08;1.55;;;;;;;10.66;nan;100496.09;5053822;28;20040;-76
2021/10/06 04:38:20;;;;;;;4.72;1.40;;;;;;;10.75;nan;100506.59;5072484;28;20058;-77
2021/10/06 04:40:46;;;;;;;6.30;1.33;;;;;;;10.72;nan;100498.94;5072098;28;20029;-76
2021/10/06 04:43:12;;;;;;;3.38;1.40;;;;;;;10.81;nan;100503.31;5054050;28;20396;-76
2021/10/06 04:45:38;;;;;;;4.53;1.35;;;;;;;10.82;nan;100509.44;5071142;28;20037;-76
2021/10/06 04:48:04;;;;;;;4.85;1.40;;;;;;;10.84;nan;100499.53;5052701;28;20040;-75
2021/10/06 04:50:30;;;;;;;3.83;1.30;;;;;;;10.87;nan;100509.81;5070479;28;20075;-76
2021/10/06 04:52:56;;;;;;;5.22;1.50;;;;;;;10.84;nan;100513.63;5070590;28;20097;-76
2021/10/06 04:55:21;;;;;;;4.20;1.40;;;;;;;10.87;nan;100514.25;5069896;28;20135;-76
2021/10/06 04:57:47;;;;;;;6.88;1.52;;;;;;;10.86;nan;100517.91;5070430;28;20036;-77
2021/10/06 05:00:12;;;;;;;3.55;1.40;;;;;;;10.79;nan;100512.41;5051683;28;20524;-76
2021/10/06 05:02:38;;;;;;;6.85;1.50;;;;;;;10.79;nan;100507.94;5078704;28;20489;-76
2021/10/06 05:05:03;;;;;;;6.35;1.60;;;;;;;10.71;nan;100509.69;5069854;28;20512;-76
2021/10/06 05:07:29;;;;;;;4.03;1.40;;;;;;;10.68;nan;100509.97;5051744;28;20497;-75
2021/10/06 05:09:54;;;;;;;5.00;1.40;;;;;;;10.61;nan;100518.53;5052408;28;20033;-76
2021/10/06 05:12:20;;;;;;;4.63;1.35;;;;;;;10.59;nan;100517.03;5052167;28;20043;-76
2021/10/06 05:14:45;;;;;;;6.15;1.55;;;;;;;10.54;nan;100509.56;5073944;28;20039;-76
2021/10/06 05:17:10;;;;;;;3.92;1.45;;;;;;;10.46;nan;100521.84;5070029;28;20500;-76
2021/10/06 05:19:36;;;;;;;3.58;1.33;;;;;;;10.47;nan;100523.53;5052693;28;20033;-76
2021/10/06 05:22:02;;;;;;;4.88;1.50;;;;;;;10.41;nan;100531.06;5070437;28;20127;-75
2021/10/06 05:24:27;;;;;;;7.43;1.90;;;;;;;10.35;nan;100531.69;5049031;28;20113;-76
2021/10/06 05:26:53;;;;;;;3.70;1.60;;;;;;;10.38;nan;100541.13;5076938;28;20078;-76
2021/10/06 05:29:20;;;;;;;4.40;1.40;;;;;;;10.38;nan;100543.75;5060175;28;20036;-76
2021/10/06 05:31:46;;;;;;;3.20;1.65;;;;;;;10.33;nan;100543.38;5069196;28;20060;-76
2021/10/06 05:34:11;;;;;;;5.32;1.60;;;;;;;10.34;nan;100537.94;5074740;28;20485;-76
2021/10/06 05:36:36;;;;;;;7.65;2.00;;;;;;;10.33;nan;100538.94;5051328;28;20505;-76
2021/10/06 05:39:02;;;;;;;5.18;1.52;;;;;;;10.37;nan;100544.75;5051720;28;20044;-76
2021/10/06 05:41:28;;;;;;;5.22;1.55;;;;;;;10.47;nan;100545.50;5051569;28;20064;-75
2021/10/06 05:43:53;;;;;;;8.45;1.98;;;;;;;10.49;nan;100537.44;5049826;28;20102;-76
2021/10/06 05:46:19;;;;;;;5.82;1.80;;;;;;;10.55;nan;100542.09;5075306;28;20024;-77
2021/10/06 05:48:45;;;;;;;4.32;1.55;;;;;;;10.56;nan;100543.78;5070582;28;20037;-77
2021/10/06 05:51:10;;;;;;;5.30;1.85;;;;;;;10.60;nan;100542.47;5069839;28;20123;-77
2021/10/06 05:53:35;;;;;;;6.78;1.75;;;;;;;10.57;nan;100545.44;5077484;28;20028;-76
2021/10/06 05:56:01;;;;;;;7.80;2.17;;;;;;;10.62;nan;100551.09;5068790;28;20056;-76
2021/10/06 05:58:27;;;;;;;5.15;1.65;;;;;;;10.64;nan;100549.13;5051214;28;20041;-76
2021/10/06 06:00:52;;;;;;;3.85;1.70;;;;;;;10.66;nan;100557.75;5068901;28;20400;-77
2021/10/06 06:03:18;;;;;;;5.97;1.63;;;;;;;10.71;nan;100560.78;5051372;28;20029;-76
2021/10/06 06:05:44;;;;;;;6.45;1.75;;;;;;;10.71;nan;100562.59;5068016;28;20234;-76
2021/10/06 06:08:10;;;;;;;7.55;1.98;;;;;;;10.78;nan;100568.94;5050690;28;20039;-76
2021/10/06 06:10:35;;;;;;;5.45;1.70;;;;;;;10.75;nan;100574.50;5069036;28;20029;-76
2021/10/06 06:13:01;;;;;;;3.08;1.40;;;;;;;10.79;nan;100576.69;5050578;28;20036;-77
2021/10/06 06:15:27;;;;;;;7.18;1.60;;;;;;;10.80;nan;100578.38;5068653;28;20032;-76
2021/10/06 06:17:52;;;;;;;7.65;1.65;;;;;;;10.87;nan;100583.03;5068156;28;20115;-76
2021/10/06 06:20:23;;;;;;;4.40;1.88;;;;;;;10.87;nan;100588.34;5074518;28;20043;-76
2021/10/06 06:22:52;;;;;;;4.03;1.50;;;;;;;10.89;nan;100587.19;5053068;28;20037;-76
2021/10/06 06:25:19;;;;;;;8.40;2.55;;;;;;;10.95;nan;100591.06;5050381;28;20041;-77
2021/10/06 06:27:44;;;;;;;6.75;1.75;;;;;;;10.94;nan;100589.38;5049871;28;20111;-76
2021/10/06 06:30:11;;;;;;;4.95;1.48;;;;;;;10.99;nan;100595.06;5077647;28;20103;-76
2021/10/06 06:32:36;;;;;;;5.68;1.60;;;;;;;11.02;nan;100594.75;5072204;28;20028;-77
2021/10/06 06:35:03;;;;;;;6.68;1.88;;;;;;;11.02;nan;100592.13;5051378;28;20516;-77
2021/10/06 06:37:28;;;;;;;7.68;1.70;;;;;;;11.08;nan;100602.06;5074104;28;20041;-76
2021/10/06 06:39:54;;;;;;;5.05;1.63;;;;;;;11.01;nan;100604.53;5070758;28;20028;-78
2021/10/06 06:42:19;;;;;;;3.83;1.60;;;;;;;10.96;nan;100617.34;5067393;28;20078;-77
2021/10/06 06:44:44;;;;;;;9.80;2.03;;;;;;;10.99;nan;100614.41;5061354;28;20039;-77
2021/10/06 06:47:10;;;;;;;3.88;1.30;;;;;;;10.99;nan;100618.88;5068372;28;20041;-75
2021/10/06 06:49:35;;;;;;;4.30;1.40;;;;;;;11.05;nan;100619.09;5050060;28;20032;-76
2021/10/06 06:52:00;;;;;;;5.63;1.73;;;;;;;11.09;nan;100624.91;5061848;28;20036;-75
2021/10/06 06:54:27;;;;;;;5.68;1.80;;;;;;;11.13;nan;100631.59;5059157;28;20523;-77
2021/10/06 06:56:53;;;;;;;7.30;1.58;;;;;;;11.15;nan;100632.22;5063534;28;20045;-75
2021/10/06 06:59:18;;;;;;;5.03;1.50;;;;;;;11.26;nan;100632.00;5049465;28;20474;-75
2021/10/06 07:01:44;;;;;;;5.35;2.47;;;;;;;11.30;nan;100635.19;5071435;28;20089;-75
2021/10/06 07:04:09;;;;;;;5.95;1.73;;;;;;;11.28;nan;100631.84;5054055;28;20040;-76
2021/10/06 07:06:35;;;;;;;6.53;1.77;;;;;;;11.31;nan;100631.53;5072261;28;20036;-76
2021/10/06 07:09:02;;;;;;;5.50;1.70;;;;;;;11.26;nan;100641.75;5071887;28;20047;-75
2021/10/06 07:11:29;;;;;;;5.30;1.67;;;;;;;11.30;nan;100632.53;5071606;28;20453;-77
2021/10/06 07:13:55;;;;;;;4.35;1.52;;;;;;;11.58;nan;100643.81;5071989;28;20132;-76
2021/10/06 07:16:20;;;;;;;5.15;1.52;;;;;;;11.95;nan;100653.34;5075765;28;20125;-76
2021/10/06 07:18:45;;;;;;;5.95;1.67;;;;;;;12.05;nan;100648.75;5072619;28;20039;-76
2021/10/06 07:21:11;;;;;;;6.10;2.08;;;;;;;12.08;nan;100659.06;5071888;28;20400;-76
2021/10/06 07:23:36;;;;;;;5.20;1.88;;;;;;;11.95;nan;100652.53;5072216;28;20024;-76
2021/10/06 07:26:02;;;;;;;8.70;2.08;;;;;;;11.80;nan;100658.38;5054674;28;20082;-75
2021/10/06 07:28:27;;;;;;;6.22;1.80;;;;;;;11.83;nan;100659.88;5072976;28;20036;-76
2021/10/06 07:30:53;;;;;;;6.28;1.70;;;;;;;11.78;nan;100664.81;5055207;28;20501;-76
2021/10/06 07:33:18;;;;;;;5.55;1.83;;;;;;;11.81;nan;100662.66;5073330;28;20118;-75
2021/10/06 07:35:44;;;;;;;8.07;1.80;;;;;;;11.87;nan;100671.84;5071638;28;20131;-76
2021/10/06 07:38:09;;;;;;;4.60;1.58;;;;;;;11.97;nan;100679.69;5070928;28;20071;-76
2021/10/06 07:40:35;;;;;;;5.68;2.20;;;;;;;12.04;nan;100686.03;5071696;28;20029;-76
2021/10/06 07:43:00;;;;;;;5.30;1.60;;;;;;;11.99;nan;100681.19;5071927;28;20189;-75
2021/10/06 07:45:26;;;;;;;4.93;1.65;;;;;;;12.04;nan;100678.91;5067924;28;20448;-75
2021/10/06 07:47:51;;;;;;;4.50;1.67;;;;;;;12.02;nan;100690.66;5070922;28;20554;-76
2021/10/06 07:50:17;;;;;;;6.40;1.50;;;;;;;12.20;nan;100695.88;5070255;28;20090;-76
2021/10/06 07:52:42;;;;;;;7.20;2.13;;;;;;;12.26;nan;100698.72;5058145;28;20130;-75
2021/10/06 07:55:08;;;;;;;6.55;1.92;;;;;;;12.27;nan;100703.03;5065046;28;20420;-75
2021/10/06 07:57:35;;;;;;;6.60;2.22;;;;;;;12.29;nan;100697.56;5070141;28;20029;-76
2021/10/06 08:00:01;;;;;;;4.95;1.40;;;;;;;12.23;nan;100700.88;5072098;28;20420;-76
2021/10/06 08:02:26;;;;;;;7.43;1.95;;;;;;;12.14;nan;100707.13;5069017;28;20032;-75
2021/10/06 08:04:52;;;;;;;6.22;1.60;;;;;;;12.15;nan;100701.63;5052367;28;20070;-75
2021/10/06 08:07:17;;;;;;;4.90;1.73;;;;;;;12.21;nan;100705.50;5069112;28;20505;-75
2021/10/06 08:09:42;;;;;;;7.35;1.63;;;;;;;12.16;nan;100705.16;5074221;28;20025;-76
2021/10/06 08:12:08;;;;;;;7.28;2.17;;;;;;;12.10;nan;100720.66;5050566;28;20492;-76
2021/10/06 08:14:33;;;;;;;11.18;2.40;;;;;;;12.09;nan;100705.75;5072023;28;20584;-75
2021/10/06 08:16:58;;;;;;;5.63;1.65;;;;;;;12.13;nan;100719.53;5069407;28;20028;-77
2021/10/06 08:19:24;;;;;;;5.63;1.52;;;;;;;12.25;nan;100720.94;5052731;28;20039;-75
2021/10/06 08:21:49;;;;;;;5.63;1.80;;;;;;;12.46;nan;100727.66;5066208;28;20355;-76
2021/10/06 08:24:15;;;;;;;4.80;1.83;;;;;;;12.72;nan;100727.59;5069841;28;20058;-76
2021/10/06 08:26:40;;;;;;;5.20;1.48;;;;;;;12.71;nan;100734.72;5070163;28;20037;-76
2021/10/06 08:29:06;;;;;;;5.25;1.42;;;;;;;12.69;nan;100733.22;5070363;28;20040;-75
2021/10/06 08:31:31;;;;;;;4.20;1.70;;;;;;;12.71;nan;100734.72;5070262;28;20068;-75
2021/10/06 08:33:56;;;;;;;5.10;1.52;;;;;;;12.70;nan;100740.19;5075990;28;20032;-76
2021/10/06 08:36:22;;;;;;;6.90;1.50;;;;;;;12.70;nan;100741.03;5056555;28;20111;-75
2021/10/06 08:38:47;;;;;;;8.00;1.80;;;;;;;12.81;nan;100744.38;5052421;28;20029;-76
2021/10/06 08:41:13;;;;;;;7.45;1.90;;;;;;;12.88;nan;100740.91;5051817;28;20040;-76
2021/10/06 08:43:40;;;;;;;5.72;1.42;;;;;;;13.13;nan;100748.91;5070712;28;20033;-76
2021/10/06 08:46:06;;;;;;;7.15;1.98;;;;;;;13.27;nan;100753.63;5052093;28;20038;-76
2021/10/06 08:48:32;;;;;;;5.45;1.10;;;;;;;14.14;nan;100756.59;5070390;28;20040;-76
2021/10/06 08:50:57;;;;;;;5.35;1.70;;;;;;;15.27;nan;100760.81;5068694;28;20443;-76
2021/10/06 08:53:23;;;;;;;4.80;1.35;;;;;;;15.07;nan;100755.09;5052197;28;20480;-76
2021/10/06 08:55:48;;;;;;;5.30;1.55;;;;;;;14.69;nan;100756.81;5070853;28;20033;-75
2021/10/06 08:58:13;;;;;;;;;;;;;;;14.34;nan;100770.34;5070496;28;20103;-76
2021/10/06 09:00:58;;;;;;;5.13;1.40;;;;;;;14.02;nan;100765.94;5070455;28;19917;-76
2021/10/06 09:03:25;;;;;;;5.60;1.40;;;;;;;13.59;nan;100765.28;5069596;28;20036;-76
2021/10/06 09:06:11;;;;;;;5.38;1.30;;;;;;;13.64;nan;100775.44;5051295;28;20045;-77
2021/10/06 09:08:38;;;;;;;6.13;1.23;;;;;;;13.59;nan;100776.75;5050442;28;20044;-77
2021/10/06 09:11:05;;;;;;;6.13;1.40;;;;;;;13.67;nan;100773.25;5068147;28;20127;-77
2021/10/06 09:13:34;;;;;;;6.00;1.30;;;;;;;13.65;nan;100774.41;5050478;28;20106;-77
2021/10/06 09:15:59;;;;;;;5.75;1.40;;;;;;;13.63;nan;100773.75;5070045;28;20036;-77
2021/10/06 09:18:27;;;;;;;3.90;1.25;;;;;;;13.49;nan;100764.59;5075493;28;20044;-77
2021/10/06 09:20:56;;;;;;;5.72;1.30;;;;;;;13.29;nan;100772.06;5069754;28;20033;-76
2021/10/06 09:23:22;;;;;;;4.63;1.38;;;;;;;13.25;nan;100768.88;5068918;28;20041;-77
2021/10/06 09:26:02;;;;;;;4.93;1.63;;;;;;;13.36;nan;100760.63;5068453;28;20063;-77
2021/10/06 09:28:42;;;;;;;4.20;1.33;;;;;;;13.33;nan;100762.78;5068056;28;20032;-76
2021/10/06 09:31:12;;;;;;;4.75;1.50;;;;;;;13.35;nan;100774.91;5068648;28;20047;-77
2021/10/06 09:33:43;;;;;;;4.53;1.50;;;;;;;13.49;nan;100776.09;5068162;28;20879;-76
2021/10/06 09:36:09;;;;;;;;;;;;;;;13.55;nan;100775.41;5074290;28;20085;-76
2021/10/06 09:38:38;;;;;;;;;;;;;;;13.69;nan;100773.09;5070451;28;19920;-78
2021/10/06 09:41:03;;;;;;;;;;;;;;;13.59;nan;100773.28;5063568;28;20017;-77
2021/10/06 09:43:28;;;;;;;5.97;1.73;;;;;;;13.58;nan;100768.94;5069604;28;20408;-76
2021/10/06 09:45:55;;;;;;;5.53;1.50;;;;;;;13.37;nan;100756.97;5068519;28;20477;-76
2021/10/06 09:48:22;;;;;;;5.43;1.40;;;;;;;13.64;nan;100760.31;5069292;28;20048;-77
2021/10/06 09:50:49;;;;;;;;;;;;;;;13.88;nan;100758.66;5068202;28;20119;-77
2021/10/06 09:53:16;;;;;;;;;;;;;;;14.06;nan;100769.91;5068885;28;19916;-76
2021/10/06 09:55:43;;;;;;;;;;;;;;;14.52;nan;100767.47;5068889;28;20462;-77
2021/10/06 09:58:09;;;;;;;;;;;;;;;14.65;nan;100765.13;5065234;28;20066;-76
2021/10/06 10:00:36;;;;;;;5.57;1.10;;;;;;;14.78;nan;100772.56;5066846;28;20059;-76
2021/10/06 10:03:03;;;;;;;5.68;1.13;;;;;;;14.87;nan;100781.31;5066603;28;20091;-76
2021/10/06 10:05:28;;;;;;;3.97;1.27;;;;;;;15.08;nan;100781.56;5051965;28;20454;-78
2021/10/06 10:07:55;;;;;;;3.97;1.50;;;;;;;15.16;nan;100772.72;5050149;28;20080;-76
2021/10/06 10:10:21;;;;;;;7.32;1.70;;;;;;;15.14;nan;100769.38;5049931;28;20043;-76
2021/10/06 10:12:47;;;;;;;4.32;1.38;;;;;;;14.77;nan;100776.22;5068203;28;20028;-76
2021/10/06 10:15:14;;;;;;;5.40;1.25;;;;;;;14.94;nan;100773.47;5052596;28;20567;-76
2021/10/06 10:17:39;;;;;;;;;;;;;;;14.78;nan;100787.72;5051143;28;20040;-76
2021/10/06 10:20:10;;;;;;;2.78;0.95;;;;;;;14.43;nan;100784.47;5067941;28;20269;-76
2021/10/06 10:22:42;;;;;;;4.13;1.20;;;;;;;14.51;nan;100778.28;5066428;28;20510;-76
2021/10/06 10:25:25;;;;;;;5.05;1.30;;;;;;;14.28;nan;100786.16;5061819;28;20478;-76
2021/10/06 10:28:12;;;;;;;4.60;1.40;;;;;;;14.34;nan;100785.47;5048803;28;20408;-75
2021/10/06 10:30:40;;;;;;;3.40;1.20;;;;;;;14.20;nan;100790.47;5067198;28;20068;-76
2021/10/06 10:33:06;;;;;;;;;;;;;;;13.92;nan;100790.03;5060564;28;20335;-77
2021/10/06 10:35:35;;;;;;;;;;;;;;;14.09;nan;100784.72;5067238;28;19925;-76
2021/10/06 10:38:06;;;;;;;3.65;1.27;;;;;;;14.05;nan;100789.53;5063130;28;19959;-77
2021/10/06 10:40:34;;;;;;;4.30;1.30;;;;;;;13.92;nan;100795.38;5067781;28;20032;-76
2021/10/06 10:43:10;;;;;;;;;;;;;;;14.08;nan;100791.00;5068370;28;20116;-76
2021/10/06 10:46:01;;;;;;;4.35;1.20;;;;;;;13.92;nan;100791.84;5067329;28;19916;-76
2021/10/06 10:48:29;;;;;;;4.72;1.20;;;;;;;13.98;nan;100794.69;5063504;28;20036;-76
2021/10/06 10:50:57;;;;;;;4.85;1.70;;;;;;;14.41;nan;100797.94;5067546;28;20039;-77
2021/10/06 10:53:50;;;;;;;5.07;1.33;;;;;;;14.82;nan;100797.81;5067123;28;20036;-75
2021/10/06 10:56:39;;;;;;;4.53;1.70;;;;;;;15.05;nan;100791.75;5046751;28;20404;-74
2021/10/06 10:59:07;;;;;;;5.78;1.70;;;;;;;15.02;nan;100792.91;5067746;28;20401;-76
2021/10/06 11:01:42;;;;;;;5.10;1.50;;;;;;;15.04;nan;100798.06;5067975;28;20039;-76
2021/10/06 11:04:12;;;;;;;5.53;1.55;;;;;;;14.84;nan;100798.47;5047851;28;20098;-75
2021/10/06 11:06:41;;;;;;;5.50;1.80;;;;;;;14.89;nan;100794.47;5067439;28;20032;-75
2021/10/06 11:09:32;;;;;;;3.72;1.33;;;;;;;15.05;nan;100797.88;5050237;28;20039;-75
2021/10/06 11:12:07;;;;;;;5.18;1.40;;;;;;;15.15;nan;100792.34;5064638;28;20028;-75
2021/10/06 11:14:37;;;;;;;3.97;1.40;;;;;;;15.03;nan;100783.09;5070352;28;20094;-76
2021/10/06 11:17:10;;;;;;;5.55;1.42;;;;;;;15.05;nan;100779.25;5062679;28;20484;-75
2021/10/06 11:19:49;;;;;;;3.47;1.42;;;;;;;15.18;nan;100785.84;5068689;28;20032;-77
2021/10/06 11:22:23;;;;;;;;;;;;;;;15.55;nan;100777.09;5068202;28;20036;-76
2021/10/06 11:24:59;;;;;;;4.65;1.10;;;;;;;15.40;nan;100779.72;5066639;28;19978;-76
2021/10/06 11:27:26;;;;;;;;;;;;;;;15.56;nan;100780.59;5068508;28;20036;-75
2021/10/06 11:29:53;;;;;;;5.07;1.40;;;;;;;15.72;nan;100772.50;5067486;28;19925;-76
2021/10/06 11:32:18;;;;;;;7.45;1.80;;;;;;;15.59;nan;100770.41;5066830;28;20040;-76
2021/10/06 11:34:51;;;;;;;3.50;1.17;;;;;;;15.39;nan;100767.38;5067727;28;20040;-75
2021/10/06 11:37:19;;;;;;;2.67;1.17;;;;;;;15.35;nan;100765.25;5067732;28;20043;-75
2021/10/06 11:39:45;;;;;;;4.78;1.10;;;;;;;15.23;nan;100760.34;5065326;28;20037;-75
2021/10/06 11:42:12;;;;;;;7.75;1.58;;;;;;;15.17;nan;100765.53;5068845;28;20029;-75